Stations météo

réclame
Mon MeteoGroup
Schmücke, Allemagne (10552): Température de l'air & dewpoint: 14.11.2018 12:00:00 - 20.11.2018 12:00:00 (CET)Schmücke, Allemagne (10552): Température de l'air 5cm & Température de l'air -5cm: 14.11.2018 12:00:00 - 20.11.2018 12:00:00 (CET)Schmücke, Allemagne (10552): Température de l'air -20cm & Température de l'air -100cm: 14.11.2018 12:00:00 - 20.11.2018 12:00:00 (CET)Schmücke, Allemagne (10552): Vitesse du vent & gusts: 14.11.2018 12:00:00 - 20.11.2018 12:00:00 (CET)Schmücke, Allemagne (10552): Direction du vent: 14.11.2018 12:00:00 - 20.11.2018 12:00:00 (CET)Schmücke, Allemagne (10552): visibility: 14.11.2018 12:00:00 - 20.11.2018 12:00:00 (CET)Schmücke, Allemagne (10552): Ensoleillement: 14.11.2018 12:00:00 - 20.11.2018 12:00:00 (CET)Schmücke, Allemagne (10552): Quantités de précipitations: 14.11.2018 12:00:00 - 20.11.2018 12:00:00 (CET)
Date & Time tt [°C] td [°C] tt 5cm [°C] tt -5cm [°C] tt -20cm [°C] tt -100cm [°C] ff [km/h] ff [knt] fx [km/h] fx [knt] dd vv [km] sd [min] rr [mm]
20.11.2018 12:00:00 -4,0 -5,0 -3,3 -0,4 0,9 6,9 29 15 47 26 ENE 0,4 0 1,4
20.11.2018 11:00:00 -4,0 -4,9 -3,3 -0,4 0,9 6,9 25 14 45 24 NE - 0 0,4
20.11.2018 10:00:00 -4,2 -5,1 -3,8 -0,4 0,9 6,9 25 14 51 28 ENE 0,1 0 0,0
20.11.2018 09:00:00 -4,3 -5,2 -4,0 -0,4 0,9 6,9 28 15 51 28 ENE 0,2 0 0,0
20.11.2018 08:00:00 -4,5 -5,4 -4,1 -0,4 1,0 6,9 29 16 58 31 ENE 0,2 0 0,0
20.11.2018 07:00:00 -4,7 -5,6 -4,3 -0,4 1,0 6,9 30 16 58 32 ENE 0,3 0 0,0
20.11.2018 06:00:00 -4,9 -5,9 -4,3 -0,4 1,0 7,0 31 17 54 29 ENE 0,3 0 0,0
20.11.2018 05:00:00 -5,0 -6,0 -4,5 -0,4 1,0 7,0 29 16 55 30 ENE 0,2 0 0,0
20.11.2018 04:00:00 -5,1 -6,1 -4,6 -0,4 1,0 7,0 23 12 49 27 ENE 0,3 0 0,0
20.11.2018 03:00:00 -5,4 -6,4 -4,8 -0,4 1,0 7,0 27 14 48 26 ENE 0,7 0 0,0
20.11.2018 02:00:00 -5,4 -6,4 -4,8 -0,4 1,0 7,0 26 14 55 30 ENE 0,5 0 0,0
20.11.2018 01:00:00 -5,4 -6,4 -4,6 -0,4 1,0 7,0 29 16 51 27 ENE 0,4 0 0,0
20.11.2018 00:00:00 -5,1 -6,0 -4,3 -0,4 1,0 7,1 25 13 50 27 ENE 0,4 0 0,0
19.11.2018 23:00:00 -4,8 -5,8 -4,0 -0,4 1,0 7,1 24 13 48 26 NE 0,3 0 0,0
19.11.2018 22:00:00 -4,4 -5,3 -3,8 -0,4 1,0 7,1 27 15 59 32 ENE 0,2 0 0,0
19.11.2018 21:00:00 -4,0 -4,8 -3,3 -0,4 1,0 7,1 24 13 50 27 ENE 0,3 0 0,0
19.11.2018 20:00:00 -3,8 -4,6 -3,3 -0,4 1,0 7,1 26 14 49 26 ENE 0,3 0 0,0
19.11.2018 19:00:00 -3,6 -4,4 -3,1 -0,4 1,0 7,1 25 13 51 27 ENE 0,2 0 0,0
19.11.2018 18:00:00 -3,5 -4,3 -3,0 -0,4 1,0 7,1 27 14 55 30 ENE 0,9 0 0,0
19.11.2018 17:00:00 -3,3 -4,0 -2,8 -0,4 1,0 7,2 25 13 55 30 ENE 0,6 0 0,2
19.11.2018 16:00:00 -3,1 -3,8 -2,6 -0,5 1,0 7,2 26 14 55 30 ENE 0,5 0 0,1
19.11.2018 15:00:00 -3,0 -3,7 -2,5 -0,5 1,0 7,2 29 16 63 34 ENE 0,7 0 0,2
19.11.2018 14:00:00 -2,9 -3,6 -2,2 -0,5 1,0 7,2 30 16 63 34 ENE 1,0 0 0,2
19.11.2018 13:00:00 -2,8 -3,6 -2,5 -0,5 1,0 7,2 29 16 52 28 ENE 0,6 0 0,5
19.11.2018 12:00:00 -2,5 -3,2 -2,4 -0,5 1,0 7,2 24 13 54 29 ENE 0,5 0 0,7
19.11.2018 11:00:00 -2,4 -3,1 -2,3 -0,6 1,0 7,2 20 11 49 26 ENE 0,4 0 0,6
19.11.2018 10:00:00 -2,4 -3,1 -2,4 -0,6 1,0 7,3 20 11 46 25 ENE 0,3 0 1,0
19.11.2018 09:00:00 -2,5 -3,2 -2,4 -0,6 1,0 7,3 22 12 44 24 ENE 0,4 0 2,3
19.11.2018 08:00:00 -2,4 -3,0 -2,3 -0,7 1,1 7,3 22 12 55 30 ENE 0,4 0 0,6
19.11.2018 07:00:00 -2,4 -3,0 -2,4 -0,7 1,1 7,3 24 13 47 26 ENE 0,4 0 0,4
19.11.2018 06:00:00 -2,4 -3,1 -2,3 -0,7 1,1 7,3 25 14 43 23 NE 0,2 0 0,6
19.11.2018 05:00:00 -2,6 -3,3 -2,5 -0,8 1,1 7,3 18 10 41 22 NE 0,1 0 0,4
19.11.2018 04:00:00 -2,8 -3,5 -2,7 -0,8 1,1 7,4 14 7 29 16 NE 0,1 0 0,7
19.11.2018 03:00:00 -3,1 -3,8 -2,9 -0,9 1,1 7,4 12 7 30 16 NE 0,5 0 0,2
19.11.2018 02:00:00 -3,3 -4,0 -3,1 -0,9 1,1 7,4 13 7 31 17 NE 0,2 0 0,0
19.11.2018 01:00:00 -3,6 -4,3 -3,4 -1,0 1,2 7,4 19 10 37 20 NE 0,2 0 0,0
19.11.2018 00:00:00 -3,7 -4,4 -3,5 -1,1 1,2 7,4 17 9 38 20 NE 0,2 0 0,1
18.11.2018 23:00:00 -4,5 -5,3 -4,3 -1,2 1,2 7,4 21 11 40 22 NE 0,5 0 0,0
18.11.2018 22:00:00 -5,6 -6,7 -5,4 -1,3 1,2 7,4 21 12 46 25 NE 3,7 0 0,1
18.11.2018 21:00:00 -5,7 -8,5 -5,6 -1,4 1,3 7,5 21 12 47 26 NE 14 0 0,0
18.11.2018 20:00:00 -6,5 -7,6 -6,9 -1,4 1,3 7,5 21 12 39 21 NE 3,4 0 0,0
18.11.2018 19:00:00 -6,3 -8,5 -6,9 -1,2 1,3 7,5 19 10 36 20 NE 6 0 0,0
18.11.2018 18:00:00 -5,4 -10,5 -6,2 -0,9 1,4 7,5 18 10 36 19 NE 18 0 0,0
18.11.2018 17:00:00 -5,1 -9,6 -5,9 -0,6 1,4 7,5 19 10 37 20 NE 16 0 0,0
18.11.2018 16:00:00 -4,1 -10,4 -4,5 -0,4 1,4 7,5 25 14 39 21 NE 21 0 0,0
18.11.2018 15:00:00 -3,3 -10,0 -3,0 -0,4 1,4 7,5 24 13 49 27 NE 20 0 0,0
18.11.2018 14:00:00 -2,2 -11,0 -2,3 -0,4 1,4 7,5 26 14 51 28 NE 28 30 0,0
18.11.2018 13:00:00 -1,7 -9,9 -1,0 -0,5 1,4 7,6 28 15 49 26 NE 29 60 0,0
18.11.2018 12:00:00 -0,4 -9,7 1,2 -0,6 1,5 7,6 22 12 42 23 NE 38 60 0,0
18.11.2018 11:00:00 -1,1 -11,0 0,3 -0,9 1,5 7,6 24 13 37 20 ENE 55 60 0,0
18.11.2018 10:00:00 -2,1 -11,0 -3,3 -1,1 1,5 7,6 21 11 42 23 NE 41 60 0,0
18.11.2018 09:00:00 -3,4 -10,2 -4,6 -1,1 1,6 7,6 24 13 45 25 NE 36 60 0,0
18.11.2018 08:00:00 -3,4 -10,4 -4,7 -1,0 1,6 7,6 24 13 45 25 NE 36 9 0,0
18.11.2018 07:00:00 -3,2 -10,2 -4,7 -0,9 1,7 7,6 24 13 40 22 NE 37 0 0,0
18.11.2018 06:00:00 -3,7 -9,1 -4,9 -0,8 1,7 7,7 25 14 43 23 NE 31 0 0,0
18.11.2018 05:00:00 -2,6 -9,0 -3,9 -0,7 1,8 7,7 25 13 45 24 ENE 44 0 0,0
18.11.2018 04:00:00 -4,0 -8,0 -5,0 -0,6 1,8 7,7 26 14 41 22 NE 26 0 0,0
18.11.2018 03:00:00 -4,0 -7,6 -5,0 -0,5 1,9 7,7 23 13 40 21 NE 26 0 0,0
18.11.2018 02:00:00 -4,0 -6,7 -5,2 -0,4 1,9 7,7 25 14 39 21 NE 21 0 0,0
18.11.2018 01:00:00 -3,5 -6,2 -4,7 -0,3 2,0 7,7 24 13 41 22 NE 23 0 0,0
18.11.2018 00:00:00 -3,4 -5,9 -4,4 -0,2 2,0 7,7 25 13 41 22 ENE 22 0 0,0
17.11.2018 23:00:00 -3,2 -4,8 -4,2 -0,1 2,1 7,7 24 13 44 24 ENE 13 0 0,0
17.11.2018 22:00:00 -3,0 -4,2 -3,7 0,0 2,1 7,8 23 13 44 24 ENE 7 0 0,0
17.11.2018 21:00:00 -2,6 -3,6 -3,3 0,1 2,1 7,8 26 14 45 25 ENE 6 0 0,0
17.11.2018 20:00:00 -2,5 -3,6 -3,1 0,2 2,1 7,8 27 15 44 24 NE 7 0 0,0
17.11.2018 19:00:00 -2,5 -3,2 -2,8 0,3 2,2 7,8 26 14 45 24 NE 2,5 0 0,0
17.11.2018 18:00:00 -2,8 -3,3 -2,7 0,3 2,2 7,8 27 15 46 25 NE 0,6 0 0,0
17.11.2018 17:00:00 -3,0 -4,1 -3,2 0,2 2,2 7,8 28 15 49 26 NE 5 29 0,0
17.11.2018 16:00:00 -2,2 -4,3 -2,9 0,2 2,2 7,8 27 15 47 25 ENE 10 59 0,0
17.11.2018 15:00:00 0,1 -4,2 -1,2 0,1 2,2 7,8 26 14 43 23 NE 23 60 0,0
17.11.2018 14:00:00 1,2 -4,1 1,9 0,0 2,2 7,9 23 13 41 22 NE 32 60 0,0
17.11.2018 13:00:00 1,6 -4,1 3,2 0,0 2,2 7,9 21 11 36 19 NE 39 60 0,0
17.11.2018 12:00:00 2,0 -5,1 3,3 0,0 2,2 7,9 23 12 43 23 NE 52 60 0,0
17.11.2018 11:00:00 1,8 -7,0 2,5 -0,1 2,3 7,9 24 13 51 28 ENE 49 60 0,0
17.11.2018 10:00:00 1,0 -5,9 -0,4 -0,1 2,4 7,9 30 16 48 26 ENE 51 60 0,0
17.11.2018 09:00:00 0,0 -4,6 -1,2 0,0 2,4 7,9 29 15 49 26 ENE 47 60 0,0
17.11.2018 08:00:00 -0,5 -4,1 -1,7 0,0 2,5 7,9 25 13 44 24 E 38 9 0,0
17.11.2018 07:00:00 -0,3 -3,3 -1,7 0,1 2,6 7,9 24 13 45 24 E 37 0 0,0
17.11.2018 06:00:00 -1,3 -3,1 -2,3 0,1 2,6 7,9 24 13 48 26 E 19 0 0,0
17.11.2018 05:00:00 -1,4 -3,0 -2,5 0,2 2,7 8,0 23 13 44 24 ENE 14 0 0,0
17.11.2018 04:00:00 -1,2 -2,8 -2,5 0,3 2,8 8,0 19 10 43 23 E 17 0 0,0
17.11.2018 03:00:00 -1,0 -2,6 -2,1 0,4 2,9 8,0 23 13 42 23 E 15 0 0,0
17.11.2018 02:00:00 -0,7 -2,5 -1,8 0,5 3,0 8,0 22 12 45 24 E 19 0 0,0
17.11.2018 01:00:00 -0,7 -2,0 -1,8 0,6 3,0 8,0 22 12 37 20 E 12 0 0,0
17.11.2018 00:00:00 -0,5 -1,8 -1,7 0,7 3,1 8,0 19 10 34 18 E 11 0 0,0
16.11.2018 23:00:00 -0,2 -2,0 -1,5 0,8 3,2 8,0 18 10 35 19 E 17 0 0,0
16.11.2018 22:00:00 0,0 -2,3 -1,5 0,9 3,3 8,0 17 9 35 19 E 32 0 0,0
16.11.2018 21:00:00 0,3 -2,0 -1,5 1,0 3,5 8,1 21 11 36 20 E 30 0 0,0
16.11.2018 20:00:00 0,2 -1,1 -1,0 1,1 3,6 8,1 22 12 40 21 ENE 14 0 0,0
16.11.2018 19:00:00 0,4 -0,9 -0,8 1,3 3,7 8,1 22 12 37 20 ENE 13 0 0,0
16.11.2018 18:00:00 0,9 -1,0 -0,6 1,5 3,9 8,1 20 11 30 16 NE 24 0 0,0
16.11.2018 17:00:00 1,8 -1,3 0,1 2,3 3,9 8,1 18 10 28 15 ENE 38 34 0,0
16.11.2018 16:00:00 3,6 -0,4 1,3 3,3 3,8 8,1 9 5 17 9 ENE 38 59 0,0
16.11.2018 15:00:00 6,1 0,0 3,6 4,3 3,5 8,1 8 4 19 11 NE 42 60 0,0
16.11.2018 14:00:00 8,4 -2,9 7,5 5,0 3,1 8,1 10 5 18 10 ESE 55 60 0,0
16.11.2018 13:00:00 9,0 -5,3 10,0 3,4 2,9 8,1 9 5 22 12 ESE 53 60 0,0
16.11.2018 12:00:00 9,5 -7,3 10,0 0,9 2,9 8,1 6 4 16 9 ESE 65 60 0,0
16.11.2018 11:00:00 8,4 -6,2 8,3 0,6 2,9 8,2 10 6 20 11 E 41 60 0,0
16.11.2018 10:00:00 6,4 -9,4 2,7 0,6 3,0 8,2 6 3 17 9 SE 64 60 0,0
16.11.2018 09:00:00 4,6 -9,5 2,4 0,6 3,1 8,2 8 5 22 12 SE 68 60 0,0
16.11.2018 08:00:00 3,1 -7,7 0,5 0,7 3,1 8,2 11 6 22 12 SE 66 15 0,0
16.11.2018 07:00:00 0,6 -1,9 -1,7 0,7 3,2 8,2 15 8 24 13 SSW 34 0 0,0
16.11.2018 06:00:00 1,3 -1,6 -0,6 0,8 3,3 8,2 13 7 21 11 SSW 34 0 0,0
16.11.2018 05:00:00 1,8 -1,3 -0,8 0,8 3,3 8,2 15 8 26 14 S 37 0 0,0
16.11.2018 04:00:00 2,2 -1,3 0,1 0,8 3,4 8,2 14 7 31 17 SSW 35 0 0,0
16.11.2018 03:00:00 2,4 -1,2 0,9 0,9 3,5 8,2 15 8 29 15 SSW 40 0 0,0
16.11.2018 02:00:00 2,7 -1,0 0,9 0,9 3,6 8,2 15 8 27 15 S 43 0 0,0
16.11.2018 01:00:00 2,9 -0,8 1,3 0,9 3,7 8,2 16 9 35 19 S 40 0 0,0
16.11.2018 00:00:00 3,1 -1,0 1,3 0,9 3,9 8,2 13 7 29 16 S 44 0 0,0
15.11.2018 23:00:00 3,9 -3,0 1,9 1,0 4,0 8,2 14 8 29 16 S 60 0 0,0
15.11.2018 22:00:00 3,6 -3,9 1,6 1,2 4,2 8,3 13 7 29 16 S 60 0 0,0
15.11.2018 21:00:00 4,3 -5,6 2,2 1,5 4,4 8,3 15 8 27 15 SSE 75 0 0,0
15.11.2018 20:00:00 3,7 -2,0 1,7 1,9 4,5 8,3 13 7 26 14 SSE 52 0 0,0
15.11.2018 19:00:00 3,8 -0,1 2,4 2,2 4,7 8,3 14 8 25 13 ESE 49 0 0,0
15.11.2018 18:00:00 3,9 -2,3 1,8 2,6 4,8 8,3 14 8 25 14 SE 61 0 0,0
15.11.2018 17:00:00 3,9 -3,0 2,3 3,2 4,9 8,3 13 7 26 14 SE 59 31 0,0
15.11.2018 16:00:00 4,8 -3,8 2,3 4,2 4,8 8,3 10 5 26 14 S 75 60 0,0
15.11.2018 15:00:00 6,6 -4,1 4,0 5,3 4,5 8,3 11 6 24 13 SSE 69 60 0,0
15.11.2018 14:00:00 6,3 -0,4 6,2 6,3 4,0 8,3 14 8 24 13 SW 65 60 0,0
15.11.2018 13:00:00 7,9 0,9 8,3 5,3 3,7 8,3 13 7 23 12 SSW 60 60 0,0
15.11.2018 12:00:00 7,0 0,0 7,3 2,9 3,6 8,3 15 8 29 16 SSW 55 60 0,0
15.11.2018 11:00:00 6,1 -0,9 5,9 0,9 3,7 8,3 13 7 24 13 SSW 69 60 0,0
15.11.2018 10:00:00 5,6 -5,1 2,2 0,9 3,7 8,3 9 5 18 10 SSW 69 57 0,0
15.11.2018 09:00:00 4,2 -5,4 1,0 0,9 3,8 8,3 9 5 20 11 SSW 66 33 0,0
15.11.2018 08:00:00 3,5 -3,3 1,2 1,0 3,9 8,3 8 4 19 10 SSW 75 11 0,0
15.11.2018 07:00:00 3,3 -3,4 0,9 1,0 4,0 8,3 10 6 22 12 SSW 75 0 0,0
15.11.2018 06:00:00 3,3 -2,0 0,2 1,0 4,2 8,3 10 5 18 10 SW 75 0 0,0
15.11.2018 05:00:00 2,7 0,7 0,2 1,1 4,3 8,3 9 5 15 8 SW 61 0 0,0
15.11.2018 04:00:00 1,8 -0,8 -0,2 1,2 4,5 8,3 11 6 21 11 SW 63 0 0,0
15.11.2018 03:00:00 1,9 -2,0 0,1 1,2 4,6 8,3 14 7 24 13 SW 60 0 0,0
15.11.2018 02:00:00 1,6 -1,1 -0,6 1,3 4,8 8,3 14 8 27 15 SW 60 0 0,0
15.11.2018 01:00:00 1,6 -1,0 -0,4 1,4 5,0 8,3 16 9 28 15 SSW 54 0 0,0
15.11.2018 00:00:00 1,8 -1,2 -0,1 1,6 5,3 8,3 10 5 21 11 SW 54 0 0,0
14.11.2018 23:00:00 1,1 -0,2 -0,5 1,8 5,6 8,3 16 9 24 13 SSW 40 0 0,0
14.11.2018 22:00:00 1,4 0,4 -1,1 2,3 5,8 8,3 12 6 24 13 SSW 47 0 0,0
14.11.2018 21:00:00 1,7 0,6 -0,4 2,7 6,1 8,3 14 8 21 11 SSW 63 0 0,0
14.11.2018 20:00:00 1,8 0,9 0,2 3,3 6,3 8,3 12 7 17 9 SSW 55 0 0,0
14.11.2018 19:00:00 2,0 1,1 0,2 4,1 6,5 8,3 9 5 15 8 SSW 50 0 0,0
14.11.2018 18:00:00 1,6 1,3 1,0 5,2 6,6 8,3 5 3 12 7 WSW 0,1 0 0,0
14.11.2018 17:00:00 2,2 1,9 2,4 5,8 6,6 8,3 9 5 17 9 SW 0,1 0 0,0
14.11.2018 16:00:00 2,7 2,4 3,1 6,3 6,6 8,3 11 6 19 10 SW 0,1 0 0,0
14.11.2018 15:00:00 2,6 2,2 3,0 6,7 6,5 8,3 14 7 21 11 SW 0,1 0 0,0
14.11.2018 14:00:00 3,2 2,8 4,0 7,2 6,3 8,3 13 7 18 10 SW 0,1 0 0,0
14.11.2018 13:00:00 3,3 2,9 3,9 7,2 6,1 8,3 9 5 16 9 SW 0,1 0 0,0
14.11.2018 12:00:00 3,3 2,9 4,0 6,5 6,0 8,3 5 3 19 10 SW 0,2 3 0,0

tt = Température de l'air
td = dewpoint
tt 5cm = Température de l'air 5cm
tt -5cm = Température de l'air -5cm
tt -20cm = Température de l'air -20cm
tt -100cm = Température de l'air -100cm
ff = Vitesse du vent
fx = gusts
dd = Direction du vent
vv = visibility
sd = Ensoleillement
rr = Quantités de précipitations

stations d'obs. à proximité